Time;durP1;ratioP1;P1;durP2;ratioP2;P2;SDS_P1;SDS_P2;PMS_P1;PMS_P2;Temp;Humidity;BMP_temperature;BMP_pressure;BME280_temperature;BME280_humidity;BME280_pressure;Samples;Min_cycle;Max_cycle;Signal;HPM_P1;HPM_P2
2023/06/17 00:01:16;;;;;;;57.47;2.80;;;;;;;;;;5072633;28;20447;-68
2023/06/17 00:03:43;;;;;;;57.30;2.67;;;;;;;;;;5072561;28;20847;-68
2023/06/17 00:06:10;;;;;;;58.20;3.20;;;;;;;;;;5072814;28;20443;-68
2023/06/17 00:08:37;;;;;;;57.03;2.60;;;;;;;;;;5071824;28;21121;-69
2023/06/17 00:11:04;;;;;;;57.03;2.47;;;;;;;;;;5072787;28;20439;-69
2023/06/17 00:13:32;;;;;;;57.10;2.50;;;;;;;;;;5072524;28;20842;-69
2023/06/17 00:16:00;;;;;;;57.70;2.77;;;;;;;;;;5072435;28;20450;-68
2023/06/17 00:18:32;;;;;;;57.90;2.97;;;;;;;;;;5072385;28;20447;-68
2023/06/17 00:20:59;;;;;;;57.60;2.90;;;;;;;;;;5071565;28;20455;-68
2023/06/17 00:23:27;;;;;;;57.70;3.10;;;;;;;;;;5072656;28;20460;-68
2023/06/17 00:25:54;;;;;;;57.03;2.50;;;;;;;;;;5072278;28;20848;-68
2023/06/17 00:28:21;;;;;;;57.57;2.50;;;;;;;;;;5072075;28;20516;-68
2023/06/17 00:30:48;;;;;;;57.60;2.60;;;;;;;;;;5071603;28;20447;-68
2023/06/17 00:33:15;;;;;;;57.30;2.83;;;;;;;;;;5072196;28;20464;-68
2023/06/17 00:35:44;;;;;;;57.70;2.70;;;;;;;;;;5071988;28;20447;-68
2023/06/17 00:38:11;;;;;;;57.40;3.00;;;;;;;;;;5072027;28;20823;-69
2023/06/17 00:40:38;;;;;;;57.17;2.30;;;;;;;;;;5071250;28;20450;-69
2023/06/17 00:43:05;;;;;;;57.20;2.40;;;;;;;;;;5071550;28;20474;-68
2023/06/17 00:45:38;;;;;;;57.73;2.93;;;;;;;;;;5071874;28;20598;-69
2023/06/17 00:48:05;;;;;;;57.50;2.20;;;;;;;;;;5071842;28;20451;-68
2023/06/17 00:50:33;;;;;;;57.17;2.47;;;;;;;;;;5071421;28;20451;-69
2023/06/17 00:53:02;;;;;;;57.70;2.97;;;;;;;;;;5071627;28;21023;-69
2023/06/17 00:55:30;;;;;;;57.70;2.60;;;;;;;;;;5071381;28;20451;-68
2023/06/17 00:57:57;;;;;;;57.20;2.50;;;;;;;;;;5071807;28;20952;-69
2023/06/17 01:00:24;;;;;;;57.47;2.63;;;;;;;;;;5070951;28;20454;-69
2023/06/17 01:02:52;;;;;;;57.73;3.20;;;;;;;;;;5071468;28;20467;-69
2023/06/17 01:05:20;;;;;;;57.40;2.30;;;;;;;;;;5071566;28;20524;-68
2023/06/17 01:07:56;;;;;;;57.20;2.30;;;;;;;;;;5068771;28;20772;-68
2023/06/17 01:10:29;;;;;;;57.80;3.27;;;;;;;;;;5061621;28;20451;-68
2023/06/17 01:12:58;;;;;;;57.17;2.30;;;;;;;;;;5071300;28;20509;-69
2023/06/17 01:15:25;;;;;;;57.70;2.73;;;;;;;;;;5071553;28;20446;-68
2023/06/17 01:17:54;;;;;;;57.50;2.50;;;;;;;;;;5071439;28;20444;-68
2023/06/17 01:20:21;;;;;;;57.07;2.60;;;;;;;;;;5070618;28;20943;-68
2023/06/17 01:22:52;;;;;;;57.70;3.80;;;;;;;;;;5071081;28;20499;-69
2023/06/17 01:25:29;;;;;;;57.33;2.80;;;;;;;;;;5071404;28;20513;-68
2023/06/17 01:27:59;;;;;;;57.60;2.70;;;;;;;;;;5071566;28;20436;-68
2023/06/17 01:30:28;;;;;;;57.17;2.23;;;;;;;;;;5070957;28;20451;-68
2023/06/17 01:32:55;;;;;;;57.90;3.27;;;;;;;;;;5071078;28;20467;-68
2023/06/17 01:35:23;;;;;;;57.47;3.00;;;;;;;;;;5071172;28;20466;-68
2023/06/17 01:37:52;;;;;;;57.40;2.53;;;;;;;;;;5071209;28;20447;-69
2023/06/17 01:40:22;;;;;;;58.23;3.23;;;;;;;;;;5070686;28;20451;-69
2023/06/17 01:42:50;;;;;;;57.00;2.30;;;;;;;;;;5071117;28;20464;-69
2023/06/17 01:45:17;;;;;;;57.90;2.70;;;;;;;;;;5070855;28;21018;-68
2023/06/17 01:47:44;;;;;;;57.30;2.37;;;;;;;;;;5071094;28;20443;-68
2023/06/17 01:50:12;;;;;;;57.37;2.40;;;;;;;;;;5070537;28;20451;-69
2023/06/17 01:55:21;;;;;;;57.53;2.67;;;;;;;;;;5027310;28;20453;-68
2023/06/17 01:57:48;;;;;;;57.57;2.90;;;;;;;;;;5028768;28;20961;-68
2023/06/17 02:00:15;;;;;;;57.50;2.60;;;;;;;;;;5027921;28;20816;-68
2023/06/17 02:02:42;;;;;;;60.53;4.47;;;;;;;;;;5028457;28;20477;-68
2023/06/17 02:05:10;;;;;;;57.20;2.30;;;;;;;;;;5028401;28;20497;-68
2023/06/17 02:07:38;;;;;;;57.40;2.50;;;;;;;;;;5028436;28;20446;-68
2023/06/17 02:10:05;;;;;;;57.17;2.70;;;;;;;;;;5027856;28;20453;-68
2023/06/17 02:12:34;;;;;;;58.23;2.97;;;;;;;;;;5028378;28;20539;-68
2023/06/17 02:15:01;;;;;;;57.07;2.43;;;;;;;;;;5028434;28;20462;-67
2023/06/17 02:17:28;;;;;;;57.57;2.57;;;;;;;;;;5028518;28;20867;-68
2023/06/17 02:19:55;;;;;;;58.10;2.93;;;;;;;;;;5027532;28;20471;-68
2023/06/17 02:22:22;;;;;;;57.67;3.23;;;;;;;;;;5028194;28;20962;-68
2023/06/17 02:24:50;;;;;;;57.03;2.33;;;;;;;;;;5028340;28;20483;-68
2023/06/17 02:27:18;;;;;;;57.40;2.33;;;;;;;;;;5067994;28;20890;-69
2023/06/17 02:29:46;;;;;;;57.13;2.30;;;;;;;;;;5070212;28;20538;-68
2023/06/17 02:32:13;;;;;;;57.37;2.70;;;;;;;;;;5070788;28;20473;-67
2023/06/17 02:34:42;;;;;;;57.20;2.50;;;;;;;;;;5070468;28;20443;-68
2023/06/17 02:37:09;;;;;;;57.40;2.40;;;;;;;;;;5070617;28;20451;-68
2023/06/17 02:39:37;;;;;;;57.07;2.30;;;;;;;;;;5069959;28;20447;-68
2023/06/17 02:42:04;;;;;;;57.27;2.60;;;;;;;;;;5070381;28;20460;-68
2023/06/17 02:44:32;;;;;;;57.40;2.73;;;;;;;;;;5071524;28;20474;-68
2023/06/17 02:47:01;;;;;;;57.33;2.60;;;;;;;;;;5073819;28;20490;-68
2023/06/17 02:49:28;;;;;;;57.50;2.40;;;;;;;;;;5073467;28;20508;-68
2023/06/17 02:51:55;;;;;;;57.37;2.63;;;;;;;;;;5074284;28;20443;-68
2023/06/17 02:54:22;;;;;;;57.60;3.30;;;;;;;;;;5074047;28;20645;-68
2023/06/17 02:56:49;;;;;;;57.13;2.30;;;;;;;;;;5073754;28;20455;-68
2023/06/17 02:59:17;;;;;;;57.27;2.67;;;;;;;;;;5073486;28;20458;-68
2023/06/17 03:01:45;;;;;;;57.37;2.50;;;;;;;;;;5074440;28;20516;-68
2023/06/17 03:04:13;;;;;;;57.30;2.30;;;;;;;;;;5074166;28;20459;-68
2023/06/17 03:06:41;;;;;;;57.47;3.50;;;;;;;;;;5072669;28;20479;-68
2023/06/17 03:09:08;;;;;;;57.07;2.20;;;;;;;;;;5072238;28;20995;-68
2023/06/17 03:11:36;;;;;;;57.27;2.40;;;;;;;;;;5060783;28;20456;-68
2023/06/17 03:14:03;;;;;;;57.00;2.17;;;;;;;;;;5073605;28;20797;-68
2023/06/17 03:16:33;;;;;;;57.90;3.87;;;;;;;;;;5073517;28;20443;-68
2023/06/17 03:19:00;;;;;;;57.37;2.67;;;;;;;;;;5073200;28;20436;-68
2023/06/17 03:21:30;;;;;;;57.37;2.67;;;;;;;;;;5073767;28;20451;-68
2023/06/17 03:23:58;;;;;;;57.07;2.00;;;;;;;;;;5073635;28;20876;-68
2023/06/17 03:26:25;;;;;;;57.50;2.83;;;;;;;;;;5073443;28;20532;-68
2023/06/17 03:28:53;;;;;;;57.17;2.17;;;;;;;;;;5072508;28;20455;-68
2023/06/17 03:31:21;;;;;;;57.30;2.50;;;;;;;;;;5073612;28;20455;-68
2023/06/17 03:33:48;;;;;;;57.57;3.10;;;;;;;;;;5073187;28;20474;-68
2023/06/17 03:36:17;;;;;;;57.17;2.40;;;;;;;;;;5073202;28;20497;-68
2023/06/17 03:38:45;;;;;;;57.07;2.30;;;;;;;;;;5072547;28;20508;-69
2023/06/17 03:41:13;;;;;;;57.57;2.90;;;;;;;;;;5073248;28;20816;-68
2023/06/17 03:43:40;;;;;;;57.47;2.33;;;;;;;;;;5073260;28;20474;-68
2023/06/17 03:46:07;;;;;;;57.17;2.50;;;;;;;;;;5073103;28;20479;-68
2023/06/17 03:48:34;;;;;;;57.30;2.50;;;;;;;;;;5072427;28;20458;-68
2023/06/17 03:51:02;;;;;;;57.60;2.70;;;;;;;;;;5073230;28;20443;-68
2023/06/17 03:53:29;;;;;;;57.47;2.60;;;;;;;;;;5072937;28;20480;-68
2023/06/17 03:55:57;;;;;;;57.07;2.30;;;;;;;;;;5071571;28;20554;-68
2023/06/17 03:58:24;;;;;;;57.23;2.40;;;;;;;;;;5072683;28;20939;-68
2023/06/17 04:00:51;;;;;;;57.10;2.70;;;;;;;;;;5072449;28;20815;-68
2023/06/17 04:03:19;;;;;;;57.47;2.50;;;;;;;;;;5072887;28;20470;-68
2023/06/17 04:05:47;;;;;;;57.90;3.10;;;;;;;;;;5072713;28;20490;-68
2023/06/17 04:08:14;;;;;;;57.40;3.03;;;;;;;;;;5072573;28;20916;-69
2023/06/17 04:10:41;;;;;;;59.40;3.10;;;;;;;;;;5072139;28;20815;-68
2023/06/17 04:13:10;;;;;;;58.10;4.93;;;;;;;;;;5072453;28;20463;-68
2023/06/17 04:15:37;;;;;;;57.40;2.83;;;;;;;;;;5072575;28;20966;-69
2023/06/17 04:18:04;;;;;;;57.60;3.40;;;;;;;;;;5072360;28;20940;-68
2023/06/17 04:20:34;;;;;;;57.47;2.97;;;;;;;;;;5071606;28;20479;-68
2023/06/17 04:23:01;;;;;;;57.07;2.40;;;;;;;;;;5072567;28;20478;-68
2023/06/17 04:25:32;;;;;;;57.10;2.57;;;;;;;;;;5072270;28;20486;-68
2023/06/17 04:28:01;;;;;;;57.17;2.53;;;;;;;;;;5072571;28;20439;-68
2023/06/17 04:30:30;;;;;;;56.97;2.30;;;;;;;;;;5071555;28;20463;-68
2023/06/17 04:32:59;;;;;;;56.80;2.30;;;;;;;;;;5072370;28;20467;-68
2023/06/17 04:35:27;;;;;;;57.10;2.27;;;;;;;;;;5072070;28;20455;-67
2023/06/17 04:37:54;;;;;;;56.67;2.00;;;;;;;;;;5072229;28;20440;-68
2023/06/17 04:40:22;;;;;;;57.00;2.70;;;;;;;;;;5071385;28;20446;-68
2023/06/17 04:42:49;;;;;;;56.93;2.30;;;;;;;;;;5072051;28;20463;-67
2023/06/17 04:45:17;;;;;;;56.67;2.10;;;;;;;;;;5072038;28;20431;-68
2023/06/17 04:47:45;;;;;;;57.53;3.00;;;;;;;;;;5072097;28;20447;-68
2023/06/17 04:50:15;;;;;;;56.97;2.20;;;;;;;;;;5071157;28;20808;-68
2023/06/17 04:52:43;;;;;;;56.87;2.30;;;;;;;;;;5071630;28;20471;-68
2023/06/17 04:55:11;;;;;;;56.83;2.40;;;;;;;;;;5071711;28;20447;-68
2023/06/17 04:57:38;;;;;;;57.10;2.30;;;;;;;;;;5071837;28;20830;-68
2023/06/17 05:00:06;;;;;;;56.87;2.10;;;;;;;;;;5070914;28;20447;-68
2023/06/17 05:02:33;;;;;;;57.33;2.73;;;;;;;;;;5071246;28;21070;-68
2023/06/17 05:05:02;;;;;;;57.50;2.90;;;;;;;;;;5071973;28;20450;-68
2023/06/17 05:07:29;;;;;;;57.40;3.07;;;;;;;;;;5063634;28;20484;-68
2023/06/17 05:09:56;;;;;;;56.93;2.10;;;;;;;;;;5066636;28;20455;-68
2023/06/17 05:12:23;;;;;;;56.77;2.10;;;;;;;;;;5066648;28;20452;-68
2023/06/17 05:14:50;;;;;;;56.97;2.20;;;;;;;;;;5071313;28;20451;-68
2023/06/17 05:17:17;;;;;;;56.97;2.40;;;;;;;;;;5071369;28;20451;-68
2023/06/17 05:19:45;;;;;;;57.70;2.23;;;;;;;;;;5070881;28;20470;-68
2023/06/17 05:22:13;;;;;;;56.93;2.43;;;;;;;;;;5071617;28;20447;-68
2023/06/17 05:24:40;;;;;;;57.07;2.53;;;;;;;;;;5071525;28;20448;-69
2023/06/17 05:27:08;;;;;;;57.03;2.97;;;;;;;;;;5071439;28;20486;-68
2023/06/17 05:29:35;;;;;;;57.17;2.93;;;;;;;;;;5070763;28;20469;-68
2023/06/17 05:32:02;;;;;;;57.10;2.30;;;;;;;;;;5071424;28;20452;-69
2023/06/17 05:34:29;;;;;;;57.00;2.20;;;;;;;;;;5071309;28;20463;-69
2023/06/17 05:36:56;;;;;;;56.77;2.47;;;;;;;;;;5071227;28;20446;-69
2023/06/17 05:39:25;;;;;;;57.57;2.70;;;;;;;;;;5070516;28;20970;-68
2023/06/17 05:41:52;;;;;;;57.17;2.63;;;;;;;;;;5071471;28;20955;-68
2023/06/17 05:44:19;;;;;;;57.23;2.73;;;;;;;;;;5071103;28;20482;-68
2023/06/17 05:46:46;;;;;;;56.90;2.37;;;;;;;;;;5071122;28;20486;-68
2023/06/17 05:49:14;;;;;;;57.20;2.50;;;;;;;;;;5070274;28;20457;-68
2023/06/17 05:51:41;;;;;;;57.00;2.20;;;;;;;;;;5071014;28;20447;-68
2023/06/17 05:54:08;;;;;;;57.47;2.90;;;;;;;;;;5070961;28;20470;-69
2023/06/17 05:56:36;;;;;;;57.17;2.43;;;;;;;;;;5070519;28;20459;-69
2023/06/17 05:59:03;;;;;;;56.77;2.23;;;;;;;;;;5070086;28;20492;-69
2023/06/17 06:01:30;;;;;;;57.10;2.87;;;;;;;;;;5071012;28;20453;-68
2023/06/17 06:03:57;;;;;;;57.40;2.90;;;;;;;;;;5070894;28;20474;-68
2023/06/17 06:06:25;;;;;;;57.10;2.60;;;;;;;;;;5070795;28;20867;-69
2023/06/17 06:08:52;;;;;;;57.17;2.93;;;;;;;;;;5070750;28;20543;-68
2023/06/17 06:11:19;;;;;;;57.40;2.40;;;;;;;;;;5070597;28;20455;-69
2023/06/17 06:13:47;;;;;;;57.00;2.50;;;;;;;;;;5071033;28;20474;-68
2023/06/17 06:16:14;;;;;;;57.50;2.60;;;;;;;;;;5070709;28;20957;-68
2023/06/17 06:18:41;;;;;;;57.57;3.00;;;;;;;;;;5070199;28;20451;-68
2023/06/17 06:21:08;;;;;;;56.50;2.27;;;;;;;;;;5074648;28;20447;-69
2023/06/17 06:23:36;;;;;;;57.40;2.83;;;;;;;;;;5074529;28;20473;-69
2023/06/17 06:26:03;;;;;;;56.97;2.50;;;;;;;;;;5074584;28;20763;-69
2023/06/17 06:28:30;;;;;;;57.30;2.50;;;;;;;;;;5074229;28;20447;-68
2023/06/17 06:30:59;;;;;;;56.97;2.10;;;;;;;;;;5074230;28;20451;-68
2023/06/17 06:33:26;;;;;;;57.17;2.80;;;;;;;;;;5074303;28;20463;-68
2023/06/17 06:35:53;;;;;;;57.00;2.30;;;;;;;;;;5074457;28;20496;-67
2023/06/17 06:38:20;;;;;;;57.00;2.20;;;;;;;;;;5074160;28;20443;-67
2023/06/17 06:40:47;;;;;;;58.27;3.20;;;;;;;;;;5073957;28;20447;-67
2023/06/17 06:43:14;;;;;;;57.07;2.47;;;;;;;;;;5074255;28;20471;-68
2023/06/17 06:45:41;;;;;;;57.67;3.23;;;;;;;;;;5074245;28;20451;-67
2023/06/17 06:48:09;;;;;;;57.10;2.47;;;;;;;;;;5074113;28;20491;-67
2023/06/17 06:50:36;;;;;;;58.17;3.20;;;;;;;;;;5073665;28;20458;-67
2023/06/17 06:53:04;;;;;;;57.53;2.90;;;;;;;;;;5074033;28;20471;-68
2023/06/17 06:55:31;;;;;;;57.40;2.80;;;;;;;;;;5073715;28;20455;-68
2023/06/17 06:57:58;;;;;;;56.90;2.40;;;;;;;;;;5073582;28;20896;-68
2023/06/17 07:00:25;;;;;;;57.27;2.50;;;;;;;;;;5072365;28;20448;-68
2023/06/17 07:02:52;;;;;;;57.67;3.00;;;;;;;;;;5073894;28;20468;-68
2023/06/17 07:05:22;;;;;;;57.17;2.80;;;;;;;;;;5073647;28;20447;-68
2023/06/17 07:07:49;;;;;;;57.50;3.17;;;;;;;;;;5068926;28;20482;-68
2023/06/17 07:10:16;;;;;;;57.30;2.90;;;;;;;;;;5068625;28;20449;-68
2023/06/17 07:12:43;;;;;;;57.57;2.57;;;;;;;;;;5065378;28;20467;-68
2023/06/17 07:15:10;;;;;;;65.23;3.00;;;;;;;;;;5073665;28;20443;-68
2023/06/17 07:17:37;;;;;;;58.53;2.67;;;;;;;;;;5073440;28;20443;-68
2023/06/17 07:20:05;;;;;;;58.27;2.90;;;;;;;;;;5072790;28;20454;-68
2023/06/17 07:22:33;;;;;;;57.70;2.70;;;;;;;;;;5073688;28;20870;-68
2023/06/17 07:25:01;;;;;;;57.20;2.50;;;;;;;;;;5073747;28;20436;-68
2023/06/17 07:27:28;;;;;;;57.00;2.37;;;;;;;;;;5073588;28;20490;-68
2023/06/17 07:29:55;;;;;;;57.00;2.33;;;;;;;;;;5072753;28;20443;-68
2023/06/17 07:32:22;;;;;;;57.80;2.87;;;;;;;;;;5073226;28;20447;-68
2023/06/17 07:34:49;;;;;;;56.90;2.47;;;;;;;;;;5073238;28;20455;-68
2023/06/17 07:37:16;;;;;;;57.27;2.67;;;;;;;;;;5073103;28;20454;-68
2023/06/17 07:39:47;;;;;;;57.50;2.73;;;;;;;;;;5072737;28;20455;-68
2023/06/17 07:42:15;;;;;;;57.30;2.63;;;;;;;;;;5073197;28;20455;-68
2023/06/17 07:44:42;;;;;;;56.43;2.33;;;;;;;;;;5070832;28;20455;-69
2023/06/17 07:47:09;;;;;;;57.17;2.70;;;;;;;;;;5072807;28;20479;-70
2023/06/17 07:49:36;;;;;;;58.17;2.37;;;;;;;;;;5072164;28;20451;-70
2023/06/17 07:52:03;;;;;;;57.40;2.83;;;;;;;;;;5073121;28;20455;-70
2023/06/17 07:54:35;;;;;;;57.90;2.73;;;;;;;;;;5072738;28;20550;-70
2023/06/17 07:57:04;;;;;;;57.60;2.60;;;;;;;;;;5072719;28;20459;-70
2023/06/17 07:59:31;;;;;;;56.97;3.00;;;;;;;;;;5072282;28;20456;-70
2023/06/17 08:01:58;;;;;;;56.77;2.50;;;;;;;;;;5072601;28;20443;-70
2023/06/17 08:04:25;;;;;;;57.87;3.40;;;;;;;;;;5072820;28;20478;-70
2023/06/17 08:06:52;;;;;;;57.00;2.83;;;;;;;;;;5072653;28;20482;-69
2023/06/17 08:09:19;;;;;;;56.43;2.00;;;;;;;;;;5072181;28;20452;-70
2023/06/17 08:11:47;;;;;;;57.10;2.90;;;;;;;;;;5072646;28;20538;-69
2023/06/17 08:14:16;;;;;;;57.47;2.90;;;;;;;;;;5072246;28;21054;-70
2023/06/17 08:16:43;;;;;;;57.87;3.17;;;;;;;;;;5072517;28;20448;-70
2023/06/17 08:19:10;;;;;;;58.80;2.70;;;;;;;;;;5071916;28;20451;-70
2023/06/17 08:21:37;;;;;;;57.23;2.53;;;;;;;;;;5072254;28;20464;-70
2023/06/17 08:24:20;;;;;;;57.07;2.33;;;;;;;;;;5072440;28;20858;-70
2023/06/17 08:26:47;;;;;;;57.30;2.60;;;;;;;;;;5071973;28;20479;-70
2023/06/17 08:29:15;;;;;;;58.70;2.37;;;;;;;;;;5071496;28;21026;-70
2023/06/17 08:31:44;;;;;;;57.40;2.73;;;;;;;;;;5072325;28;20497;-70
2023/06/17 08:34:11;;;;;;;57.47;2.50;;;;;;;;;;5072043;28;20475;-70
2023/06/17 08:36:38;;;;;;;56.43;2.20;;;;;;;;;;5071991;28;20451;-70
2023/06/17 08:39:05;;;;;;;57.07;2.53;;;;;;;;;;5071301;28;20466;-69
2023/06/17 08:41:35;;;;;;;57.13;2.40;;;;;;;;;;5071579;28;20485;-70
2023/06/17 08:44:03;;;;;;;57.27;2.50;;;;;;;;;;5072278;28;20474;-70
2023/06/17 08:46:30;;;;;;;58.40;2.63;;;;;;;;;;5071910;28;20455;-70
2023/06/17 08:48:59;;;;;;;57.50;2.90;;;;;;;;;;5071483;28;20628;-70
2023/06/17 08:51:26;;;;;;;56.93;2.70;;;;;;;;;;5071928;28;20451;-70
2023/06/17 08:53:54;;;;;;;56.87;2.50;;;;;;;;;;5071477;28;20472;-70
2023/06/17 08:56:21;;;;;;;56.90;2.53;;;;;;;;;;5071709;28;20472;-70
2023/06/17 08:58:49;;;;;;;57.13;2.77;;;;;;;;;;5071224;28;20470;-70
2023/06/17 09:01:17;;;;;;;57.77;2.83;;;;;;;;;;5072028;28;20848;-70
2023/06/17 09:03:44;;;;;;;57.27;2.97;;;;;;;;;;5071754;28;20474;-70
2023/06/17 09:06:20;;;;;;;56.93;2.43;;;;;;;;;;5071337;28;20447;-70
2023/06/17 09:08:47;;;;;;;57.40;2.93;;;;;;;;;;5070845;28;20535;-70
2023/06/17 09:11:14;;;;;;;72.60;3.90;;;;;;;;;;5071553;28;20470;-70
2023/06/17 09:13:41;;;;;;;56.77;2.30;;;;;;;;;;5071404;28;20471;-70
2023/06/17 09:16:09;;;;;;;57.20;2.30;;;;;;;;;;5071512;28;20448;-70
2023/06/17 09:18:36;;;;;;;58.17;3.50;;;;;;;;;;5070948;28;20450;-70
2023/06/17 09:21:04;;;;;;;56.47;2.20;;;;;;;;;;5071415;28;20617;-70
2023/06/17 09:23:32;;;;;;;56.60;2.20;;;;;;;;;;5071158;28;20984;-70
2023/06/17 09:26:02;;;;;;;56.43;2.10;;;;;;;;;;5071361;28;20466;-70
2023/06/17 09:28:29;;;;;;;56.63;2.20;;;;;;;;;;5071351;28;20501;-70
2023/06/17 09:30:59;;;;;;;56.47;2.30;;;;;;;;;;5070867;28;20455;-70
2023/06/17 09:33:27;;;;;;;56.80;2.10;;;;;;;;;;5071199;28;20479;-70
2023/06/17 09:35:59;;;;;;;56.70;2.57;;;;;;;;;;5071174;28;20458;-70
2023/06/17 09:38:27;;;;;;;57.00;2.50;;;;;;;;;;5071205;28;20450;-69
2023/06/17 09:40:56;;;;;;;56.70;2.20;;;;;;;;;;5070887;28;20858;-70
2023/06/17 09:43:24;;;;;;;57.10;2.33;;;;;;;;;;5063062;28;20578;-70
2023/06/17 09:45:55;;;;;;;56.70;2.33;;;;;;;;;;5070667;28;20993;-70
2023/06/17 09:48:28;;;;;;;55.77;1.80;;;;;;;;;;5071124;28;20533;-70
2023/06/17 09:50:56;;;;;;;56.80;2.07;;;;;;;;;;5070856;28;20439;-70
2023/06/17 09:53:26;;;;;;;57.30;2.40;;;;;;;;;;5070934;28;20467;-70
2023/06/17 09:55:56;;;;;;;56.80;2.10;;;;;;;;;;5074429;28;21037;-70
2023/06/17 09:58:29;;;;;;;57.40;2.70;;;;;;;;;;5074941;28;20432;-70
2023/06/17 10:00:57;;;;;;;56.33;2.30;;;;;;;;;;5075048;28;20439;-70
2023/06/17 10:03:25;;;;;;;56.67;2.47;;;;;;;;;;5075107;28;20474;-70
2023/06/17 10:05:55;;;;;;;57.10;2.50;;;;;;;;;;5074743;28;20450;-70
2023/06/17 10:08:23;;;;;;;57.77;3.20;;;;;;;;;;5074978;28;20490;-70
2023/06/17 10:10:50;;;;;;;56.87;2.10;;;;;;;;;;5074337;28;20456;-70
2023/06/17 10:13:19;;;;;;;57.17;2.30;;;;;;;;;;5074831;28;20551;-70
2023/06/17 10:15:49;;;;;;;56.67;2.20;;;;;;;;;;5074576;28;20452;-70
2023/06/17 10:18:17;;;;;;;56.40;2.10;;;;;;;;;;5074895;28;20784;-69
2023/06/17 10:20:45;;;;;;;56.67;2.10;;;;;;;;;;5074191;28;20447;-70
2023/06/17 10:23:12;;;;;;;56.37;2.10;;;;;;;;;;5074404;28;20475;-70
2023/06/17 10:25:41;;;;;;;56.27;2.03;;;;;;;;;;5074240;28;20453;-70
2023/06/17 10:28:09;;;;;;;57.10;2.30;;;;;;;;;;5074375;28;21074;-70
2023/06/17 10:30:39;;;;;;;56.30;2.00;;;;;;;;;;5073669;28;20447;-70
2023/06/17 10:33:08;;;;;;;56.40;2.33;;;;;;;;;;5074388;28;20562;-70
2023/06/17 10:35:38;;;;;;;56.37;1.97;;;;;;;;;;5074177;28;20986;-70
2023/06/17 10:38:06;;;;;;;56.77;2.43;;;;;;;;;;5074063;28;20435;-70
2023/06/17 10:40:36;;;;;;;56.20;2.20;;;;;;;;;;5073790;28;20450;-70
2023/06/17 10:43:19;;;;;;;55.93;1.70;;;;;;;;;;5074267;28;20471;-70
2023/06/17 10:45:49;;;;;;;56.07;2.30;;;;;;;;;;5073671;28;20451;-71
2023/06/17 10:48:18;;;;;;;56.60;2.17;;;;;;;;;;5073885;28;20898;-70
2023/06/17 10:50:46;;;;;;;55.97;2.20;;;;;;;;;;5073611;28;20447;-71
2023/06/17 10:53:16;;;;;;;55.77;2.10;;;;;;;;;;5073937;28;20979;-70
2023/06/17 10:55:43;;;;;;;55.77;2.30;;;;;;;;;;5073630;28;20470;-71
2023/06/17 10:58:10;;;;;;;55.57;2.10;;;;;;;;;;5074133;28;20443;-71
2023/06/17 11:00:38;;;;;;;55.27;1.73;;;;;;;;;;5073188;28;20826;-70
2023/06/17 11:03:06;;;;;;;55.60;2.70;;;;;;;;;;5073526;28;20472;-71
2023/06/17 11:05:36;;;;;;;55.10;1.93;;;;;;;;;;5073515;28;21058;-71
2023/06/17 11:08:04;;;;;;;55.17;2.10;;;;;;;;;;5073567;28;20493;-70
2023/06/17 11:10:31;;;;;;;55.20;2.00;;;;;;;;;;5073087;28;20473;-71
2023/06/17 11:12:58;;;;;;;55.17;1.90;;;;;;;;;;5073686;28;20506;-71
2023/06/17 11:15:25;;;;;;;55.50;2.63;;;;;;;;;;5073720;28;20454;-70
2023/06/17 11:18:00;;;;;;;55.10;2.00;;;;;;;;;;5073593;28;20494;-71
2023/06/17 11:20:27;;;;;;;55.20;2.17;;;;;;;;;;5073083;28;20469;-70
2023/06/17 11:22:56;;;;;;;55.50;2.10;;;;;;;;;;5073591;28;20493;-71
2023/06/17 11:25:24;;;;;;;55.20;2.13;;;;;;;;;;5073669;28;20516;-71
2023/06/17 11:27:51;;;;;;;55.10;2.17;;;;;;;;;;5073372;28;20443;-71
2023/06/17 11:30:19;;;;;;;55.37;1.77;;;;;;;;;;5072878;28;20461;-71
2023/06/17 11:32:46;;;;;;;55.27;2.27;;;;;;;;;;5073327;28;20477;-71
2023/06/17 11:35:14;;;;;;;55.23;2.20;;;;;;;;;;5073642;28;20462;-71
2023/06/17 11:37:42;;;;;;;55.17;2.10;;;;;;;;;;5072954;28;20483;-71
2023/06/17 11:40:12;;;;;;;56.03;2.33;;;;;;;;;;5072405;28;20932;-70
2023/06/17 11:42:40;;;;;;;55.40;2.30;;;;;;;;;;5069516;28;21010;-71
2023/06/17 11:45:08;;;;;;;55.07;1.80;;;;;;;;;;5064528;28;20461;-70
2023/06/17 11:47:35;;;;;;;55.50;2.50;;;;;;;;;;5072750;28;20824;-70
2023/06/17 11:50:05;;;;;;;55.90;2.90;;;;;;;;;;5066187;28;20474;-70
2023/06/17 11:52:32;;;;;;;54.97;1.93;;;;;;;;;;5072665;28;20450;-70
2023/06/17 11:54:59;;;;;;;56.00;2.60;;;;;;;;;;5072931;28;20452;-71
2023/06/17 11:57:28;;;;;;;55.50;2.40;;;;;;;;;;5072806;28;20447;-70
2023/06/17 11:59:59;;;;;;;55.57;2.03;;;;;;;;;;5071999;28;20494;-71
2023/06/17 12:02:28;;;;;;;56.03;2.23;;;;;;;;;;5072787;28;20447;-70
2023/06/17 12:04:55;;;;;;;56.00;2.43;;;;;;;;;;5072958;28;20509;-70
2023/06/17 12:07:22;;;;;;;55.30;1.80;;;;;;;;;;5072791;28;20443;-70
2023/06/17 12:09:53;;;;;;;55.20;2.13;;;;;;;;;;5071658;28;20835;-70
2023/06/17 12:12:28;;;;;;;55.67;2.90;;;;;;;;;;5072429;28;20955;-70
2023/06/17 12:14:59;;;;;;;55.33;2.13;;;;;;;;;;5072497;28;20451;-69
2023/06/17 12:17:26;;;;;;;56.27;3.00;;;;;;;;;;5071366;28;21005;-71
2023/06/17 12:19:53;;;;;;;55.73;2.57;;;;;;;;;;5071559;28;21006;-71
2023/06/17 12:22:23;;;;;;;55.10;2.00;;;;;;;;;;5072486;28;20443;-71
2023/06/17 12:24:50;;;;;;;55.03;2.20;;;;;;;;;;5072298;28;20966;-70
2023/06/17 12:27:17;;;;;;;55.20;2.03;;;;;;;;;;5072386;28;20530;-72
2023/06/17 12:29:46;;;;;;;55.27;2.20;;;;;;;;;;5071687;28;20821;-71
2023/06/17 12:32:13;;;;;;;55.17;2.10;;;;;;;;;;5067288;28;20813;-71
2023/06/17 12:34:40;;;;;;;55.30;1.90;;;;;;;;;;5071476;28;20447;-71
2023/06/17 12:37:07;;;;;;;55.87;2.33;;;;;;;;;;5071522;28;20460;-71
2023/06/17 12:39:36;;;;;;;56.33;2.40;;;;;;;;;;5071239;28;20475;-71
2023/06/17 12:42:04;;;;;;;54.93;2.13;;;;;;;;;;5072125;28;20448;-70
2023/06/17 12:44:32;;;;;;;55.00;1.80;;;;;;;;;;5072288;28;20467;-70
2023/06/17 12:47:01;;;;;;;55.07;2.33;;;;;;;;;;5071618;28;20534;-71
2023/06/17 12:49:28;;;;;;;55.03;1.90;;;;;;;;;;5070964;28;20963;-71
2023/06/17 12:51:55;;;;;;;55.87;2.40;;;;;;;;;;5071734;28;20833;-69
2023/06/17 12:54:23;;;;;;;54.47;1.90;;;;;;;;;;5071917;28;20459;-68
2023/06/17 12:56:50;;;;;;;55.20;1.80;;;;;;;;;;5071609;28;20980;-69
2023/06/17 12:59:17;;;;;;;55.10;2.00;;;;;;;;;;5070821;28;20506;-69
2023/06/17 13:01:44;;;;;;;56.27;2.10;;;;;;;;;;5071352;28;20444;-72
2023/06/17 13:04:13;;;;;;;54.90;2.00;;;;;;;;;;5071672;28;20476;-71
2023/06/17 13:06:40;;;;;;;54.37;1.60;;;;;;;;;;5071583;28;20454;-71
2023/06/17 13:09:07;;;;;;;54.70;2.00;;;;;;;;;;5070982;28;20450;-71
2023/06/17 13:11:34;;;;;;;53.80;1.73;;;;;;;;;;5071368;28;21019;-69
2023/06/17 13:14:01;;;;;;;55.07;2.20;;;;;;;;;;5071333;28;21069;-69
2023/06/17 13:16:29;;;;;;;54.93;2.23;;;;;;;;;;5071181;28;20451;-69
2023/06/17 13:18:56;;;;;;;55.23;2.40;;;;;;;;;;5070976;28;20482;-69
2023/06/17 13:21:25;;;;;;;55.20;1.90;;;;;;;;;;5071315;28;20459;-69
2023/06/17 13:23:52;;;;;;;54.87;2.50;;;;;;;;;;5071323;28;20537;-69
2023/06/17 13:26:20;;;;;;;55.27;2.37;;;;;;;;;;5071308;28;20444;-69
2023/06/17 13:28:47;;;;;;;54.80;2.07;;;;;;;;;;5070734;28;20451;-68
2023/06/17 13:31:14;;;;;;;54.70;2.20;;;;;;;;;;5071533;28;20477;-71
2023/06/17 13:33:41;;;;;;;56.20;2.97;;;;;;;;;;5071291;28;20851;-70
2023/06/17 13:36:08;;;;;;;54.63;1.97;;;;;;;;;;5071230;28;20443;-71
2023/06/17 13:38:37;;;;;;;54.93;1.93;;;;;;;;;;5070328;28;21021;-71
2023/06/17 13:41:04;;;;;;;54.87;2.00;;;;;;;;;;5071522;28;20451;-71
2023/06/17 13:43:31;;;;;;;55.07;2.37;;;;;;;;;;5065133;28;20503;-70
2023/06/17 13:45:58;;;;;;;55.40;2.30;;;;;;;;;;5059841;28;20464;-70
2023/06/17 13:48:25;;;;;;;56.37;3.50;;;;;;;;;;5054430;28;20484;-71
2023/06/17 13:50:52;;;;;;;55.50;2.40;;;;;;;;;;5070381;28;20447;-71
2023/06/17 13:53:19;;;;;;;55.70;2.30;;;;;;;;;;5071149;28;20470;-70
2023/06/17 13:55:48;;;;;;;55.37;2.43;;;;;;;;;;5070710;28;20464;-71
2023/06/17 13:58:15;;;;;;;55.30;1.87;;;;;;;;;;5071160;28;20546;-71
2023/06/17 14:00:42;;;;;;;55.37;2.10;;;;;;;;;;5070140;28;20463;-70
2023/06/17 14:03:10;;;;;;;55.20;2.13;;;;;;;;;;5071060;28;20490;-71
2023/06/17 14:05:37;;;;;;;56.17;2.53;;;;;;;;;;5071081;28;20938;-71
2023/06/17 14:08:04;;;;;;;55.07;2.00;;;;;;;;;;5070848;28;20542;-70
2023/06/17 14:10:31;;;;;;;56.17;2.63;;;;;;;;;;5070179;28;20451;-71
2023/06/17 14:13:00;;;;;;;55.10;1.80;;;;;;;;;;5070579;28;21003;-70
2023/06/17 14:15:27;;;;;;;55.03;1.93;;;;;;;;;;5070785;28;20873;-71
2023/06/17 14:17:54;;;;;;;54.87;1.97;;;;;;;;;;5071014;28;20447;-71
2023/06/17 14:20:22;;;;;;;58.57;3.13;;;;;;;;;;5069903;28;20487;-71
2023/06/17 14:22:55;;;;;;;55.37;2.27;;;;;;;;;;5070849;28;20471;-71
2023/06/17 14:25:22;;;;;;;55.03;2.00;;;;;;;;;;5071017;28;20501;-70
2023/06/17 14:27:49;;;;;;;55.17;2.50;;;;;;;;;;5070569;28;20959;-71
2023/06/17 14:30:18;;;;;;;55.07;1.90;;;;;;;;;;5069863;28;20443;-70
2023/06/17 14:32:46;;;;;;;55.63;2.43;;;;;;;;;;5070738;28;20471;-71
2023/06/17 14:35:15;;;;;;;54.97;2.40;;;;;;;;;;5070557;28;20443;-70
2023/06/17 14:37:43;;;;;;;55.10;1.90;;;;;;;;;;5070729;28;20459;-71